createdAt,value
2018-03-25T00:01:58.489Z,1.00
2018-03-25T00:04:28.497Z,1.00
2018-03-25T00:06:57.534Z,1.00
2018-03-25T00:09:25.559Z,1.00
2018-03-25T00:11:56.833Z,1.00
2018-03-25T00:14:37.865Z,1.00
2018-03-25T00:17:12.498Z,1.00
2018-03-25T00:19:48.242Z,1.00
2018-03-25T00:22:34.042Z,1.00
2018-03-25T00:25:18.490Z,1.00
2018-03-25T00:27:52.582Z,1.00
2018-03-25T00:30:25.218Z,1.00
2018-03-25T00:32:54.161Z,1.00
2018-03-25T00:35:28.145Z,1.00
2018-03-25T00:37:59.558Z,1.00
2018-03-25T00:40:29.602Z,1.00
2018-03-25T00:42:58.611Z,1.00
2018-03-25T00:45:27.642Z,1.00
2018-03-25T00:47:59.106Z,1.00
2018-03-25T00:50:41.997Z,1.00
2018-03-25T00:53:10.054Z,1.00
2018-03-25T00:55:40.484Z,1.00
2018-03-25T00:58:08.509Z,14.20
2018-03-25T01:00:36.558Z,22.50
2018-03-25T01:03:04.578Z,25.60
2018-03-25T01:05:37.194Z,26.80
2018-03-25T01:08:17.089Z,29.30
2018-03-25T01:10:45.917Z,41.50
2018-03-25T01:13:15.961Z,41.60
2018-03-25T01:15:57.057Z,45.80
2018-03-25T01:18:29.726Z,44.90
2018-03-25T01:20:58.685Z,43.40
2018-03-25T01:23:27.425Z,27.50
2018-03-25T01:25:58.162Z,41.70
2018-03-25T01:28:27.193Z,39.30
2018-03-25T01:30:55.549Z,36.20
2018-03-25T01:33:34.495Z,54.80
2018-03-25T01:36:06.550Z,37.30
2018-03-25T01:38:41.241Z,32.70
2018-03-25T01:41:14.858Z,17.70
2018-03-25T01:43:44.897Z,40.30
2018-03-25T01:49:07.549Z,66.10
2018-03-25T01:51:41.189Z,72.70
2018-03-25T01:54:21.794Z,77.00
2018-03-25T01:56:49.847Z,79.10
2018-03-25T01:59:21.145Z,80.00
2018-03-25T02:01:49.133Z,80.10
2018-03-25T02:04:19.329Z,81.30
2018-03-25T02:06:51.806Z,82.00
2018-03-25T02:09:23.418Z,82.90
2018-03-25T02:11:56.229Z,81.30
2018-03-25T02:14:26.068Z,92.50
2018-03-25T02:16:59.425Z,92.50
2018-03-25T02:19:27.591Z,92.70
2018-03-25T02:21:56.649Z,92.70
2018-03-25T02:24:29.290Z,93.00
2018-03-25T02:26:59.557Z,92.40
2018-03-25T02:39:47.743Z,92.80
2018-03-25T02:42:16.699Z,93.50
2018-03-25T02:44:48.856Z,93.00
2018-03-25T02:47:22.413Z,93.30
2018-03-25T02:49:52.895Z,93.80
2018-03-25T02:54:57.074Z,93.90
2018-03-25T02:57:27.603Z,94.00
2018-03-25T03:00:20.158Z,93.20
2018-03-25T03:02:50.145Z,94.00
2018-03-25T03:10:31.453Z,94.00
2018-03-25T03:31:12.334Z,97.10
2018-03-25T03:36:20.579Z,96.50
2018-03-25T03:38:51.356Z,96.40
2018-03-25T03:44:01.685Z,97.60
2018-03-25T03:46:35.665Z,97.70
2018-03-25T03:49:07.333Z,97.90
2018-03-25T03:51:48.440Z,97.60
2018-03-25T03:59:41.753Z,98.30
2018-03-25T04:02:15.805Z,98.10
2018-03-25T04:04:47.829Z,98.10
2018-03-25T04:09:59.149Z,98.70
2018-03-25T04:12:27.920Z,98.20
2018-03-25T04:14:57.945Z,98.20
2018-03-25T04:17:26.337Z,98.20
2018-03-25T04:19:56.737Z,98.20
2018-03-25T04:22:32.393Z,98.50
2018-03-25T04:25:02.421Z,98.40
2018-03-25T04:27:32.701Z,98.40
2018-03-25T04:30:06.725Z,98.30
2018-03-25T04:32:39.229Z,98.20
2018-03-25T04:35:17.685Z,98.50
2018-03-25T04:37:55.265Z,98.70
2018-03-25T04:40:24.517Z,98.60
2018-03-25T04:43:16.660Z,98.00
2018-03-25T04:45:45.745Z,97.90
2018-03-25T04:48:14.693Z,97.70
2018-03-25T04:50:52.693Z,97.50
2018-03-25T04:53:24.748Z,97.40
2018-03-25T04:55:57.966Z,97.60
2018-03-25T04:58:29.783Z,97.60
2018-03-25T05:00:57.856Z,97.90
2018-03-25T05:03:26.836Z,97.90
2018-03-25T05:05:56.864Z,98.00
2018-03-25T05:08:26.155Z,97.60
2018-03-25T05:10:56.213Z,97.80
2018-03-25T05:13:24.240Z,97.80
2018-03-25T05:15:57.720Z,98.00
2018-03-25T05:18:39.535Z,98.60
2018-03-25T05:21:14.241Z,98.60
2018-03-25T05:23:47.308Z,98.50
2018-03-25T05:26:21.944Z,98.40
2018-03-25T05:28:53.772Z,98.30
2018-03-25T05:31:26.485Z,98.30
2018-03-25T05:34:01.156Z,99.00
2018-03-25T05:36:30.184Z,99.00
2018-03-25T05:38:58.224Z,98.90
2018-03-25T05:41:28.261Z,98.80
2018-03-25T05:43:57.256Z,98.50
2018-03-25T05:46:26.272Z,98.20
2018-03-25T05:49:00.352Z,98.60
2018-03-25T05:51:30.372Z,98.20
2018-03-25T05:53:59.406Z,97.30
2018-03-25T05:56:34.672Z,96.70
2018-03-25T05:59:05.865Z,96.50
2018-03-25T06:01:33.880Z,96.20
2018-03-25T06:04:07.420Z,95.90
2018-03-25T06:06:35.448Z,95.60
2018-03-25T06:09:06.535Z,95.40
2018-03-25T06:11:34.560Z,95.20
2018-03-25T06:14:04.520Z,95.00
2018-03-25T06:16:34.544Z,94.80
2018-03-25T06:19:02.565Z,95.10
2018-03-25T06:21:31.588Z,95.00
2018-03-25T06:24:03.344Z,94.40
2018-03-25T06:26:31.368Z,94.50
2018-03-25T06:29:01.343Z,93.80
2018-03-25T06:31:29.372Z,93.50
2018-03-25T06:33:58.412Z,92.10
2018-03-25T06:36:26.482Z,90.90
2018-03-25T06:38:54.508Z,90.00
2018-03-25T06:41:22.571Z,87.60
2018-03-25T06:43:50.606Z,85.50
2018-03-25T06:46:19.395Z,83.20
2018-03-25T06:48:48.364Z,83.10
2018-03-25T06:51:17.351Z,81.50
2018-03-25T06:53:45.380Z,78.90
2018-03-25T06:56:13.416Z,77.00
2018-03-25T06:58:42.212Z,74.60
2018-03-25T07:01:11.172Z,74.50
2018-03-25T07:03:40.152Z,74.90
2018-03-25T07:06:09.168Z,74.00
2018-03-25T07:08:38.204Z,74.30
2018-03-25T07:11:07.887Z,75.40
2018-03-25T07:13:37.867Z,75.40
2018-03-25T07:16:05.899Z,77.20
2018-03-25T07:18:33.943Z,80.00
2018-03-25T07:21:02.729Z,1.00
2018-03-25T07:23:32.524Z,34.60
2018-03-25T07:26:01.324Z,99.90
2018-03-25T07:28:33.464Z,1.00
2018-03-25T07:31:01.476Z,1.00
2018-03-25T07:33:29.488Z,1.00
2018-03-25T07:35:57.563Z,99.90
2018-03-25T07:38:25.576Z,1.00
2018-03-25T07:40:57.499Z,99.90
2018-03-25T07:43:36.219Z,1.00
2018-03-25T07:46:25.335Z,99.90
2018-03-25T07:49:05.811Z,99.90
2018-03-25T07:51:35.772Z,99.90
2018-03-25T07:54:08.711Z,99.90
2018-03-25T07:56:56.027Z,97.70
2018-03-25T07:59:31.995Z,99.90
2018-03-25T08:02:04.975Z,28.20
2018-03-25T08:04:40.823Z,1.00
2018-03-25T08:10:13.732Z,1.00
2018-03-25T08:12:46.859Z,1.00
2018-03-25T08:15:18.708Z,1.00
2018-03-25T08:17:55.364Z,1.00
2018-03-25T08:20:29.331Z,99.90
2018-03-25T08:22:59.327Z,99.90
2018-03-25T08:25:28.134Z,99.90
2018-03-25T08:27:59.930Z,99.90
2018-03-25T08:30:33.451Z,1.00
2018-03-25T08:33:10.023Z,93.20
2018-03-25T08:35:42.195Z,99.90
2018-03-25T08:38:16.107Z,99.90
2018-03-25T08:40:58.155Z,99.90
2018-03-25T08:43:32.996Z,1.00
2018-03-25T08:46:01.015Z,1.00
2018-03-25T08:48:29.791Z,1.00
2018-03-25T08:51:07.572Z,1.00
2018-03-25T08:53:48.171Z,1.00
2018-03-25T08:56:35.703Z,1.00
2018-03-25T09:02:02.116Z,1.00
2018-03-25T09:04:36.099Z,1.00
2018-03-25T09:07:04.141Z,1.00
2018-03-25T09:09:39.431Z,1.00
2018-03-25T09:12:17.402Z,1.00
2018-03-25T09:14:52.135Z,1.00
2018-03-25T09:17:28.195Z,1.00
2018-03-25T09:20:12.747Z,1.00
2018-03-25T09:22:46.798Z,1.00
2018-03-25T09:25:15.815Z,1.00
2018-03-25T09:27:50.607Z,1.00
2018-03-25T09:30:23.015Z,1.00
2018-03-25T09:32:55.251Z,1.00
2018-03-25T09:35:29.666Z,1.00
2018-03-25T09:38:02.759Z,1.00
2018-03-25T09:40:40.426Z,1.00
2018-03-25T09:46:02.324Z,1.00
2018-03-25T09:48:37.706Z,1.00
2018-03-25T09:51:06.634Z,1.00
2018-03-25T09:53:41.507Z,1.00
2018-03-25T09:56:17.192Z,1.00
2018-03-25T09:58:49.172Z,1.00
2018-03-25T10:01:23.290Z,1.00
2018-03-25T10:03:57.270Z,1.00
2018-03-25T10:06:25.303Z,1.00
2018-03-25T10:09:00.506Z,1.00
2018-03-25T10:11:28.564Z,1.00
2018-03-25T10:14:00.951Z,1.00
2018-03-25T10:16:35.746Z,1.00
2018-03-25T10:19:05.854Z,1.00
2018-03-25T10:21:42.234Z,1.00
2018-03-25T10:24:10.463Z,1.00
2018-03-25T10:26:59.514Z,1.00
2018-03-25T10:29:27.498Z,1.00
2018-03-25T10:31:56.282Z,1.00
2018-03-25T10:34:30.702Z,1.00
2018-03-25T10:37:04.476Z,1.00
2018-03-25T10:39:47.630Z,1.00
2018-03-25T10:42:18.318Z,1.00
2018-03-25T10:44:54.662Z,1.00
2018-03-25T10:47:26.146Z,1.00
2018-03-25T10:49:54.154Z,1.00
2018-03-25T10:55:18.734Z,1.00
2018-03-25T10:57:46.752Z,1.00
2018-03-25T11:00:32.413Z,1.00
2018-03-25T11:03:11.374Z,99.90
2018-03-25T11:05:46.318Z,99.90
2018-03-25T11:08:16.246Z,99.90
2018-03-25T11:10:54.934Z,1.00
2018-03-25T11:13:30.614Z,1.00
2018-03-25T11:15:59.605Z,1.00
2018-03-25T11:18:33.422Z,1.00
2018-03-25T11:21:08.866Z,1.00
2018-03-25T11:23:36.885Z,1.00
2018-03-25T11:26:05.833Z,1.00
2018-03-25T11:28:35.693Z,1.00
2018-03-25T11:31:09.974Z,1.00
2018-03-25T11:33:49.698Z,1.00
2018-03-25T11:36:23.389Z,1.00
2018-03-25T11:38:54.554Z,1.00
2018-03-25T11:41:29.174Z,1.00
2018-03-25T11:43:57.218Z,1.00
2018-03-25T11:46:27.202Z,1.00
2018-03-25T11:49:03.502Z,1.00
2018-03-25T11:51:33.449Z,1.00
2018-03-25T11:54:02.462Z,1.00
2018-03-25T11:56:32.473Z,1.00
2018-03-25T11:59:08.301Z,1.00
2018-03-25T12:01:36.305Z,1.00
2018-03-25T12:04:04.410Z,1.00
2018-03-25T12:06:40.369Z,1.00
2018-03-25T12:09:12.949Z,99.90
2018-03-25T12:11:44.577Z,99.90
2018-03-25T12:14:13.542Z,99.90
2018-03-25T12:16:47.297Z,99.90
2018-03-25T12:19:21.218Z,99.90
2018-03-25T12:21:50.298Z,99.90
2018-03-25T12:24:35.237Z,99.90
2018-03-25T12:27:15.603Z,99.90
2018-03-25T12:29:47.861Z,99.90
2018-03-25T12:32:20.517Z,99.90
2018-03-25T12:34:53.185Z,99.90
2018-03-25T12:37:28.617Z,99.90
2018-03-25T12:40:06.533Z,99.90
2018-03-25T12:42:36.553Z,99.90
2018-03-25T12:45:05.357Z,99.90
2018-03-25T12:47:35.453Z,99.90
2018-03-25T12:50:07.013Z,99.90
2018-03-25T12:52:36.809Z,1.00
2018-03-25T12:55:05.857Z,1.00
2018-03-25T12:57:57.398Z,1.00
2018-03-25T13:00:26.445Z,99.90
2018-03-25T13:02:54.453Z,99.90
2018-03-25T13:05:24.417Z,99.90
2018-03-25T13:07:55.137Z,99.90
2018-03-25T13:10:28.425Z,99.90
2018-03-25T13:13:15.481Z,99.90
2018-03-25T13:15:49.519Z,99.90
2018-03-25T13:18:17.559Z,99.90
2018-03-25T13:20:47.548Z,99.90
2018-03-25T13:23:15.561Z,99.90
2018-03-25T13:25:44.629Z,99.90
2018-03-25T13:28:19.249Z,99.90
2018-03-25T13:30:59.637Z,99.90
2018-03-25T13:33:29.673Z,99.90
2018-03-25T13:36:09.021Z,99.90
2018-03-25T13:38:38.043Z,99.90
2018-03-25T13:41:06.067Z,99.90
2018-03-25T13:43:51.225Z,99.90
2018-03-25T13:46:22.421Z,99.90
2018-03-25T13:48:54.089Z,99.90
2018-03-25T13:51:26.748Z,99.90
2018-03-25T13:53:56.802Z,99.90
2018-03-25T13:56:31.113Z,99.90
2018-03-25T13:58:59.921Z,99.90
2018-03-25T14:04:04.126Z,99.90
2018-03-25T14:06:36.017Z,99.90
2018-03-25T14:09:05.760Z,99.90
2018-03-25T14:11:34.813Z,99.90
2018-03-25T14:14:21.501Z,99.90
2018-03-25T14:16:52.244Z,99.90
2018-03-25T14:19:28.324Z,99.90
2018-03-25T14:25:02.336Z,99.90
2018-03-25T14:27:36.372Z,99.90
2018-03-25T14:30:25.529Z,99.90
2018-03-25T14:32:54.572Z,99.90
2018-03-25T14:35:22.625Z,99.90
2018-03-25T14:37:58.552Z,99.90
2018-03-25T14:40:32.204Z,99.90
2018-03-25T14:43:02.028Z,99.90
2018-03-25T14:45:37.516Z,99.90
2018-03-25T14:48:05.544Z,99.90
2018-03-25T14:50:37.273Z,99.90
2018-03-25T14:53:05.316Z,99.90
2018-03-25T14:55:33.336Z,99.90
2018-03-25T14:58:05.568Z,99.90
2018-03-25T15:00:35.584Z,99.90
2018-03-25T15:03:03.628Z,99.90
2018-03-25T15:05:32.661Z,99.90
2018-03-25T15:08:00.703Z,99.90
2018-03-25T15:10:28.724Z,99.90
2018-03-25T15:12:58.508Z,99.90
2018-03-25T15:15:26.548Z,99.90
2018-03-25T15:17:54.580Z,99.90
2018-03-25T15:20:26.936Z,99.90
2018-03-25T15:22:56.733Z,99.90
2018-03-25T15:25:25.736Z,99.90
2018-03-25T15:27:53.772Z,99.90
2018-03-25T15:30:22.780Z,99.90
2018-03-25T15:32:51.768Z,99.90
2018-03-25T15:35:19.805Z,99.90
2018-03-25T15:37:54.589Z,99.90
2018-03-25T15:40:36.308Z,99.90
2018-03-25T15:43:05.256Z,99.90
2018-03-25T15:45:33.291Z,99.90
2018-03-25T15:48:02.328Z,99.90
2018-03-25T15:50:32.344Z,99.90
2018-03-25T15:53:00.380Z,99.90
2018-03-25T15:55:30.368Z,99.90
2018-03-25T15:58:01.496Z,99.90
2018-03-25T16:00:31.292Z,99.90
2018-03-25T16:02:59.324Z,99.90
2018-03-25T16:05:27.362Z,99.90
2018-03-25T16:07:56.320Z,99.90
2018-03-25T16:10:31.209Z,99.90
2018-03-25T16:13:00.242Z,99.90
2018-03-25T16:15:29.216Z,99.90
2018-03-25T16:17:57.264Z,99.90
2018-03-25T16:20:26.288Z,99.90
2018-03-25T16:22:55.285Z,99.90
2018-03-25T16:25:27.140Z,99.90
2018-03-25T16:28:07.676Z,99.90
2018-03-25T16:30:45.820Z,1.00
2018-03-25T16:33:13.856Z,1.00
2018-03-25T16:35:43.820Z,1.00
2018-03-25T16:38:14.524Z,1.00
2018-03-25T16:40:45.328Z,1.00
2018-03-25T16:43:16.504Z,1.00
2018-03-25T16:45:46.523Z,1.00
2018-03-25T16:48:18.992Z,1.00
2018-03-25T16:50:48.000Z,1.00
2018-03-25T16:53:16.028Z,1.00
2018-03-25T16:55:45.044Z,1.00
2018-03-25T16:58:14.168Z,1.00
2018-03-25T17:00:48.168Z,1.00
2018-03-25T17:03:21.952Z,1.00
2018-03-25T17:05:54.644Z,1.00
2018-03-25T17:08:37.820Z,79.70
2018-03-25T17:11:17.880Z,99.90
2018-03-25T17:13:53.216Z,99.90
2018-03-25T17:16:21.244Z,99.90
2018-03-25T17:18:54.212Z,1.00
2018-03-25T17:21:28.600Z,1.00
2018-03-25T17:27:01.810Z,1.00
2018-03-25T17:29:31.780Z,99.90
2018-03-25T17:32:09.616Z,99.90
2018-03-25T17:34:37.668Z,1.00
2018-03-25T17:37:09.484Z,1.00
2018-03-25T17:39:42.284Z,1.00
2018-03-25T17:42:32.104Z,99.90
2018-03-25T17:45:01.144Z,99.90
2018-03-25T17:47:32.592Z,99.90
2018-03-25T17:50:07.272Z,1.00
2018-03-25T17:52:38.970Z,93.10
2018-03-25T17:55:19.404Z,1.00
2018-03-25T17:57:49.500Z,1.00
2018-03-25T18:00:19.416Z,1.00
2018-03-25T18:02:52.180Z,99.90
2018-03-25T18:05:20.236Z,1.00
2018-03-25T18:07:52.715Z,1.00
2018-03-25T18:10:24.459Z,27.50
2018-03-25T18:12:55.184Z,99.90
2018-03-25T18:15:25.212Z,99.90
2018-03-25T18:17:55.012Z,1.00
2018-03-25T18:20:25.178Z,1.00
2018-03-25T18:22:54.136Z,1.00
2018-03-25T18:25:22.164Z,99.90
2018-03-25T18:27:51.200Z,99.90
2018-03-25T18:30:28.611Z,99.90
2018-03-25T18:32:57.712Z,99.90
2018-03-25T18:35:25.728Z,99.90
2018-03-25T18:37:53.780Z,99.90
2018-03-25T18:40:23.724Z,1.00
2018-03-25T18:42:53.736Z,1.00
2018-03-25T18:45:25.700Z,1.00
2018-03-25T18:47:54.710Z,99.90
2018-03-25T18:50:24.712Z,99.90
2018-03-25T18:52:53.772Z,1.00
2018-03-25T18:55:23.726Z,91.00
2018-03-25T18:57:55.892Z,99.90
2018-03-25T19:00:35.175Z,1.00
2018-03-25T19:03:06.464Z,1.00
2018-03-25T19:05:34.486Z,1.00
2018-03-25T19:08:04.467Z,99.90
2018-03-25T19:10:34.183Z,99.90
2018-03-25T19:13:07.169Z,99.90
2018-03-25T19:15:40.032Z,1.00
2018-03-25T19:18:09.020Z,1.00
2018-03-25T19:20:42.415Z,1.00
2018-03-25T19:23:12.779Z,1.00
2018-03-25T19:25:43.804Z,1.00
2018-03-25T19:28:17.392Z,1.00
2018-03-25T19:30:45.425Z,99.90
2018-03-25T19:33:13.468Z,99.90
2018-03-25T19:35:42.427Z,99.90
2018-03-25T19:38:11.228Z,1.00
2018-03-25T19:40:46.617Z,1.00
2018-03-25T19:43:15.647Z,1.00
2018-03-25T19:45:47.603Z,1.00
2018-03-25T19:48:17.636Z,1.00
2018-03-25T19:50:48.959Z,1.00
2018-03-25T19:53:22.223Z,1.00
2018-03-25T19:55:51.268Z,1.00
2018-03-25T19:58:20.062Z,1.00
2018-03-25T20:00:54.667Z,1.00
2018-03-25T20:03:25.419Z,87.20
2018-03-25T20:05:56.127Z,1.00
2018-03-25T20:08:24.147Z,2.50
2018-03-25T20:10:52.171Z,16.00
2018-03-25T20:13:24.863Z,17.40
2018-03-25T20:15:52.903Z,6.70
2018-03-25T20:18:22.823Z,99.90
2018-03-25T20:20:58.384Z,30.70
2018-03-25T20:23:27.371Z,34.00
2018-03-25T20:25:55.391Z,52.00
2018-03-25T20:28:23.423Z,99.90
2018-03-25T20:30:52.402Z,99.90
2018-03-25T20:33:21.410Z,99.90
2018-03-25T20:35:49.399Z,99.90
2018-03-25T20:38:17.435Z,99.90
2018-03-25T20:40:46.639Z,99.90
2018-03-25T20:43:28.039Z,99.90
2018-03-25T20:45:57.603Z,99.90
2018-03-25T20:48:29.176Z,99.90
2018-03-25T20:51:04.939Z,99.90
2018-03-25T20:53:45.347Z,99.90
2018-03-25T20:56:19.611Z,99.90
2018-03-25T20:58:55.835Z,99.90
2018-03-25T21:01:23.967Z,99.90
2018-03-25T21:03:52.023Z,99.90
2018-03-25T21:06:25.623Z,99.90
2018-03-25T21:08:55.503Z,99.90
2018-03-25T21:11:27.903Z,99.90
2018-03-25T21:13:56.750Z,99.90
2018-03-25T21:16:26.279Z,99.90
2018-03-25T21:19:18.675Z,99.90
2018-03-25T21:21:51.466Z,99.90
2018-03-25T21:24:24.506Z,99.90
2018-03-25T21:26:57.471Z,99.90
2018-03-25T21:29:28.566Z,99.90
2018-03-25T21:32:00.196Z,99.90
2018-03-25T21:34:33.295Z,99.90
2018-03-25T21:37:03.326Z,99.90
2018-03-25T21:39:34.182Z,99.90
2018-03-25T21:42:03.870Z,99.90
2018-03-25T21:44:32.954Z,99.90
2018-03-25T21:47:01.927Z,99.90
2018-03-25T21:49:43.902Z,99.90
2018-03-25T21:52:11.934Z,99.90
2018-03-25T21:54:48.495Z,99.90
2018-03-25T21:57:25.271Z,99.90
2018-03-25T21:59:56.374Z,99.90
2018-03-25T22:02:26.498Z,99.90
2018-03-25T22:04:58.694Z,99.90
2018-03-25T22:07:30.526Z,99.90
2018-03-25T22:09:58.850Z,99.90
2018-03-25T22:12:27.878Z,99.90
2018-03-25T22:14:59.154Z,99.90
2018-03-25T22:17:37.490Z,99.90
2018-03-25T22:20:05.551Z,99.90
2018-03-25T22:22:40.098Z,99.90
2018-03-25T22:25:09.382Z,99.90
2018-03-25T22:27:37.442Z,99.90
2018-03-25T22:30:07.415Z,99.90
2018-03-25T22:32:36.418Z,1.00
2018-03-25T22:35:08.386Z,1.00
2018-03-25T22:37:44.569Z,1.00
2018-03-25T22:40:24.670Z,1.00
2018-03-25T22:42:57.662Z,1.00
2018-03-25T22:45:29.450Z,1.00
2018-03-25T22:48:00.194Z,1.00
2018-03-25T22:50:30.202Z,1.00
2018-03-25T22:53:01.958Z,1.00
2018-03-25T22:55:35.650Z,1.00
2018-03-25T22:58:06.418Z,1.00
2018-03-25T23:00:34.458Z,1.00
2018-03-25T23:13:28.183Z,1.00
2018-03-25T23:16:05.002Z,1.00
2018-03-25T23:18:39.179Z,1.00
2018-03-25T23:21:09.009Z,1.00
2018-03-25T23:23:38.146Z,1.00
2018-03-25T23:26:06.217Z,1.00
2018-03-25T23:28:35.257Z,1.00
2018-03-25T23:31:08.545Z,99.90
2018-03-25T23:33:38.553Z,99.90
2018-03-25T23:36:07.425Z,1.00
2018-03-25T23:38:41.177Z,1.00
2018-03-25T23:41:14.309Z,1.00
2018-03-25T23:43:46.761Z,1.00
2018-03-25T23:46:15.125Z,1.00
2018-03-25T23:48:47.145Z,1.00
2018-03-25T23:51:17.097Z,1.00
2018-03-25T23:53:51.790Z,1.00
2018-03-25T23:56:32.072Z,1.00
2018-03-25T23:59:00.325Z,1.00
